Time;durP1;ratioP1;P1;durP2;ratioP2;P2;SDS_P1;SDS_P2;PMS_P1;PMS_P2;Temp;Humidity;BMP_temperature;BMP_pressure;BME280_temperature;BME280_humidity;BME280_pressure;Samples;Min_cycle;Max_cycle;Signal;HPM_P1;HPM_P2
2023/09/07 00:01:31;;;;;;;4.03;3.62;;;17.30;76.00;;;;;;951300;148;27367;-76
2023/09/07 00:03:58;;;;;;;3.62;3.33;;;17.30;76.40;;;;;;951328;148;27374;-76
2023/09/07 00:06:25;;;;;;;4.47;4.08;;;17.30;76.70;;;;;;952052;148;27323;-76
2023/09/07 00:08:51;;;;;;;5.62;3.90;;;17.20;76.90;;;;;;950576;147;27446;-76
2023/09/07 00:11:17;;;;;;;4.53;3.85;;;17.20;77.20;;;;;;955239;148;27311;-76
2023/09/07 00:13:44;;;;;;;5.30;3.58;;;17.20;77.50;;;;;;950008;148;27428;-76
2023/09/07 00:16:10;;;;;;;3.92;3.20;;;17.10;77.60;;;;;;951050;148;27326;-76
2023/09/07 00:18:37;;;;;;;4.55;4.15;;;17.10;77.80;;;;;;932187;148;27340;-76
2023/09/07 00:21:04;;;;;;;4.47;4.08;;;17.00;78.10;;;;;;940193;150;27313;-76
2023/09/07 00:23:30;;;;;;;3.20;2.98;;;17.00;78.60;;;;;;934937;149;27365;-76
2023/09/07 00:25:57;;;;;;;3.77;3.47;;;17.00;78.80;;;;;;955472;147;27366;-76
2023/09/07 00:28:23;;;;;;;5.05;3.60;;;17.00;79.20;;;;;;931473;149;27712;-76
2023/09/07 00:30:50;;;;;;;4.10;3.70;;;17.00;79.40;;;;;;959869;146;27388;-76
2023/09/07 00:33:17;;;;;;;7.20;4.33;;;16.90;78.90;;;;;;957951;146;27317;-76
2023/09/07 00:35:43;;;;;;;3.95;3.55;;;16.90;80.00;;;;;;961622;146;27306;-76
2023/09/07 00:38:11;;;;;;;4.33;3.67;;;16.90;80.30;;;;;;960515;146;27342;-76
2023/09/07 00:40:36;;;;;;;4.58;4.00;;;16.80;80.60;;;;;;933770;150;27432;-76
2023/09/07 00:43:04;;;;;;;3.72;3.42;;;16.80;81.00;;;;;;941481;149;27352;-76
2023/09/07 00:45:30;;;;;;;3.92;3.62;;;16.80;81.60;;;;;;932662;149;27453;-76
2023/09/07 00:47:56;;;;;;;6.37;4.65;;;16.80;82.10;;;;;;948892;146;27339;-76
2023/09/07 00:50:23;;;;;;;4.85;4.10;;;16.70;82.50;;;;;;933157;150;27432;-76
2023/09/07 00:52:49;;;;;;;4.28;3.87;;;16.70;83.10;;;;;;949620;146;27283;-76
2023/09/07 00:55:16;;;;;;;4.15;3.75;;;16.70;83.60;;;;;;949870;146;27311;-76
2023/09/07 00:57:42;;;;;;;4.30;3.55;;;16.70;84.10;;;;;;940384;149;27420;-76
2023/09/07 01:00:09;;;;;;;3.77;3.40;;;16.60;84.90;;;;;;933218;149;27329;-76
2023/09/07 01:02:36;;;;;;;5.85;3.58;;;16.60;85.20;;;;;;938305;148;27438;-76
2023/09/07 01:05:05;;;;;;;3.75;2.98;;;16.60;85.50;;;;;;939730;149;27339;-76
2023/09/07 01:07:43;;;;;;;3.55;3.17;;;16.60;85.90;;;;;;963922;146;27320;-76
2023/09/07 01:10:10;;;;;;;3.77;3.47;;;16.60;86.10;;;;;;950928;148;27986;-76
2023/09/07 01:12:37;;;;;;;4.58;4.10;;;16.50;86.00;;;;;;949912;148;27329;-76
2023/09/07 01:15:04;;;;;;;3.70;3.35;;;16.50;87.00;;;;;;952107;148;27349;-76
2023/09/07 01:17:30;;;;;;;3.70;3.27;;;16.50;87.60;;;;;;953097;148;27375;-76
2023/09/07 01:19:56;;;;;;;3.65;3.35;;;16.40;88.00;;;;;;931328;149;27332;-76
2023/09/07 01:22:23;;;;;;;3.60;3.30;;;16.40;88.40;;;;;;941400;150;27385;-76
2023/09/07 01:24:50;;;;;;;3.52;3.22;;;16.40;88.90;;;;;;943577;149;27330;-76
2023/09/07 01:27:16;;;;;;;5.22;3.80;;;16.30;89.30;;;;;;931036;149;27384;-76
2023/09/07 01:29:43;;;;;;;3.60;3.30;;;16.30;89.80;;;;;;940403;150;27390;-76
2023/09/07 01:32:13;;;;;;;7.92;3.10;;;16.30;90.10;;;;;;958454;146;27318;-76
2023/09/07 01:34:39;;;;;;;4.73;3.83;;;16.20;90.40;;;;;;950058;146;27875;-76
2023/09/07 01:37:05;;;;;;;4.50;3.45;;;16.20;90.70;;;;;;948707;146;28143;-76
2023/09/07 01:39:32;;;;;;;3.70;3.40;;;16.10;91.00;;;;;;939423;149;27365;-76
2023/09/07 01:41:58;;;;;;;4.25;3.85;;;16.10;91.50;;;;;;934163;148;27346;-76
2023/09/07 01:44:26;;;;;;;4.40;4.00;;;16.10;92.00;;;;;;973044;145;27319;-76
2023/09/07 01:46:52;;;;;;;3.83;3.42;;;16.10;92.70;;;;;;945851;148;27393;-76
2023/09/07 01:49:18;;;;;;;6.28;3.55;;;16.10;93.10;;;;;;953523;148;27377;-76
2023/09/07 01:51:45;;;;;;;3.85;3.35;;;16.10;93.40;;;;;;945593;149;27344;-76
2023/09/07 01:54:11;;;;;;;3.95;3.45;;;16.10;93.70;;;;;;963570;146;27330;-76
2023/09/07 01:56:39;;;;;;;6.28;3.75;;;16.10;93.90;;;;;;963412;146;27310;-76
2023/09/07 01:59:04;;;;;;;3.70;3.40;;;16.00;94.20;;;;;;963403;145;27358;-76
2023/09/07 02:01:31;;;;;;;3.62;3.33;;;16.00;94.90;;;;;;963263;146;27301;-76
2023/09/07 02:03:58;;;;;;;4.45;3.95;;;16.00;94.80;;;;;;952587;148;27305;-76
2023/09/07 02:06:24;;;;;;;4.10;3.73;;;16.00;95.00;;;;;;947290;148;27400;-76
2023/09/07 02:08:51;;;;;;;4.07;3.77;;;16.10;95.30;;;;;;973694;145;27453;-76
2023/09/07 02:11:17;;;;;;;4.63;3.40;;;16.00;95.50;;;;;;948488;148;27457;-76
2023/09/07 02:13:44;;;;;;;3.52;3.22;;;16.00;95.80;;;;;;974757;145;27258;-76
2023/09/07 02:16:11;;;;;;;6.77;3.60;;;16.00;96.20;;;;;;966619;145;27306;-76
2023/09/07 02:18:43;;;;;;;3.52;3.33;;;16.00;96.50;;;;;;941902;149;27447;-76
2023/09/07 02:21:06;;;;;;;3.90;3.60;;;16.00;96.70;;;;;;956648;147;27385;-76
2023/09/07 02:23:33;;;;;;;4.72;3.80;;;16.00;96.90;;;;;;969762;145;27279;-76
2023/09/07 02:25:59;;;;;;;5.03;3.53;;;15.90;97.10;;;;;;969507;145;27447;-76
2023/09/07 02:28:26;;;;;;;4.15;3.75;;;16.00;97.40;;;;;;968594;145;27421;-76
2023/09/07 02:30:53;;;;;;;4.17;3.85;;;15.90;97.70;;;;;;968627;145;27457;-76
2023/09/07 02:33:19;;;;;;;3.85;3.47;;;15.90;97.90;;;;;;963703;146;27307;-76
2023/09/07 02:35:46;;;;;;;4.53;4.12;;;15.90;98.00;;;;;;946184;148;27698;-76
2023/09/07 02:38:13;;;;;;;4.15;3.77;;;15.90;98.30;;;;;;963393;146;27430;-76
2023/09/07 02:40:44;;;;;;;3.80;3.50;;;15.90;98.40;;;;;;963089;146;27346;-76
2023/09/07 02:43:11;;;;;;;10.18;5.55;;;15.90;98.60;;;;;;963052;146;27361;-76
2023/09/07 02:45:38;;;;;;;4.15;3.83;;;15.90;98.70;;;;;;963384;146;27318;-76
2023/09/07 02:48:04;;;;;;;4.77;3.93;;;15.90;98.90;;;;;;963591;146;27331;-76
2023/09/07 02:50:31;;;;;;;4.42;3.92;;;15.90;99.00;;;;;;954365;148;27395;-76
2023/09/07 02:52:57;;;;;;;4.20;3.83;;;15.90;99.20;;;;;;967287;145;27407;-76
2023/09/07 02:55:24;;;;;;;4.70;4.30;;;15.90;99.50;;;;;;966429;145;27398;-76
2023/09/07 02:57:51;;;;;;;4.60;4.22;;;15.90;99.60;;;;;;963070;146;27396;-76
2023/09/07 03:00:17;;;;;;;4.28;3.83;;;15.90;99.80;;;;;;963636;146;27459;-76
2023/09/07 03:02:44;;;;;;;4.13;3.73;;;15.90;99.90;;;;;;962925;145;27781;-76
2023/09/07 03:05:10;;;;;;;4.17;3.77;;;15.90;99.90;;;;;;962820;146;27312;-76
2023/09/07 03:07:39;;;;;;;4.00;3.60;;;15.80;99.90;;;;;;963265;146;27388;-76
2023/09/07 03:10:04;;;;;;;3.97;3.60;;;15.90;99.90;;;;;;955674;147;27862;-76
2023/09/07 03:12:30;;;;;;;4.80;4.00;;;15.80;99.90;;;;;;952542;148;27435;-76
2023/09/07 03:14:57;;;;;;;9.53;5.05;;;15.80;99.90;;;;;;946839;148;27428;-76
2023/09/07 03:17:23;;;;;;;3.95;3.60;;;15.80;99.90;;;;;;963002;146;27323;-76
2023/09/07 03:19:50;;;;;;;4.20;3.70;;;15.80;99.90;;;;;;963100;146;27311;-76
2023/09/07 03:22:16;;;;;;;4.10;3.60;;;15.70;99.90;;;;;;945389;149;27384;-76
2023/09/07 03:24:43;;;;;;;4.12;3.72;;;15.70;99.90;;;;;;963277;146;27299;-76
2023/09/07 03:27:11;;;;;;;4.37;4.03;;;15.70;99.90;;;;;;963036;146;27302;-76
2023/09/07 03:29:36;;;;;;;3.83;3.52;;;15.70;99.90;;;;;;962990;146;27315;-76
2023/09/07 03:32:03;;;;;;;4.60;4.20;;;15.70;99.90;;;;;;963290;146;27895;-76
2023/09/07 03:34:29;;;;;;;4.42;3.95;;;15.60;99.90;;;;;;962780;146;27344;-76
2023/09/07 03:36:57;;;;;;;3.98;3.67;;;15.60;99.90;;;;;;963036;146;27319;-76
2023/09/07 03:39:23;;;;;;;4.37;3.97;;;15.60;99.90;;;;;;962902;146;27366;-76
2023/09/07 03:41:49;;;;;;;6.13;3.87;;;15.60;99.90;;;;;;962805;146;27327;-76
2023/09/07 03:44:16;;;;;;;4.15;3.75;;;15.60;99.90;;;;;;938666;149;27425;-76
2023/09/07 03:46:42;;;;;;;3.60;3.30;;;15.50;99.90;;;;;;938341;150;27326;-76
2023/09/07 03:49:09;;;;;;;4.13;3.80;;;15.50;99.90;;;;;;959501;147;27396;-76
2023/09/07 03:51:36;;;;;;;4.17;3.87;;;15.50;99.90;;;;;;955802;147;27700;-76
2023/09/07 03:54:02;;;;;;;4.58;4.17;;;15.50;99.90;;;;;;956880;146;27366;-76
2023/09/07 03:56:29;;;;;;;3.93;3.63;;;15.50;99.90;;;;;;934045;149;27364;-76
2023/09/07 03:58:55;;;;;;;4.15;3.83;;;15.40;99.90;;;;;;939256;150;27344;-76
2023/09/07 04:01:22;;;;;;;4.50;4.10;;;15.40;99.90;;;;;;949901;147;27317;-75
2023/09/07 04:03:50;;;;;;;4.10;3.80;;;15.40;99.90;;;;;;950658;147;27930;-76
2023/09/07 04:06:15;;;;;;;3.92;3.62;;;15.40;99.90;;;;;;950800;147;27367;-76
2023/09/07 04:08:42;;;;;;;4.87;4.00;;;15.40;99.90;;;;;;942993;149;27705;-76
2023/09/07 04:11:08;;;;;;;4.00;3.70;;;15.30;99.90;;;;;;933376;149;27391;-76
2023/09/07 04:13:35;;;;;;;3.85;3.55;;;15.30;99.90;;;;;;950121;147;27399;-76
2023/09/07 04:16:02;;;;;;;4.23;3.83;;;15.30;99.90;;;;;;938264;150;27377;-75
2023/09/07 04:18:28;;;;;;;3.80;3.50;;;15.30;99.90;;;;;;949924;147;27340;-76
2023/09/07 04:20:55;;;;;;;4.62;4.22;;;15.30;99.90;;;;;;949690;146;27343;-76
2023/09/07 04:23:21;;;;;;;4.63;4.23;;;15.30;99.90;;;;;;939886;150;27480;-76
2023/09/07 04:25:48;;;;;;;4.90;4.40;;;15.30;99.90;;;;;;950424;147;27337;-76
2023/09/07 04:28:14;;;;;;;4.58;4.17;;;15.20;99.90;;;;;;949956;147;27465;-76
2023/09/07 04:30:41;;;;;;;4.57;4.17;;;15.20;99.90;;;;;;942401;148;27389;-76
2023/09/07 04:33:08;;;;;;;4.20;3.87;;;15.20;99.90;;;;;;949982;147;27453;-76
2023/09/07 04:35:34;;;;;;;4.70;3.77;;;15.20;99.90;;;;;;941968;148;28007;-76
2023/09/07 04:38:01;;;;;;;4.72;4.33;;;15.20;99.90;;;;;;949628;147;27451;-76
2023/09/07 04:40:27;;;;;;;4.40;4.00;;;15.20;99.90;;;;;;926237;150;27351;-76
2023/09/07 04:42:54;;;;;;;4.10;3.63;;;15.20;99.90;;;;;;949385;148;27404;-76
2023/09/07 04:45:20;;;;;;;6.30;4.07;;;15.20;99.90;;;;;;951500;148;27353;-76
2023/09/07 04:47:47;;;;;;;4.37;3.98;;;15.20;99.90;;;;;;951459;148;27348;-76
2023/09/07 04:50:14;;;;;;;4.20;3.90;;;15.20;99.90;;;;;;951982;148;27353;-76
2023/09/07 04:52:40;;;;;;;4.50;4.13;;;15.10;99.90;;;;;;931759;149;27416;-76
2023/09/07 04:55:07;;;;;;;4.47;4.05;;;15.10;99.90;;;;;;954063;148;27348;-76
2023/09/07 04:57:34;;;;;;;3.52;3.22;;;15.10;99.90;;;;;;952128;148;27337;-76
2023/09/07 05:00:00;;;;;;;4.47;4.10;;;15.10;99.90;;;;;;954010;148;27369;-76
2023/09/07 05:02:27;;;;;;;5.20;4.53;;;15.10;99.90;;;;;;931975;149;27780;-76
2023/09/07 05:04:53;;;;;;;5.90;4.50;;;15.10;99.90;;;;;;951679;148;27378;-76
2023/09/07 05:07:20;;;;;;;4.90;3.87;;;15.10;99.90;;;;;;949859;146;27311;-76
2023/09/07 05:09:48;;;;;;;4.15;3.72;;;15.20;99.90;;;;;;949545;146;27382;-76
2023/09/07 05:12:14;;;;;;;4.53;4.08;;;15.30;99.90;;;;;;960270;147;27405;-76
2023/09/07 05:14:40;;;;;;;4.22;3.83;;;15.40;99.90;;;;;;949323;146;27311;-76
2023/09/07 05:17:06;;;;;;;4.40;4.00;;;15.50;99.90;;;;;;949253;146;27294;-76
2023/09/07 05:19:34;;;;;;;6.33;3.92;;;15.80;99.90;;;;;;961990;145;27303;-76
2023/09/07 05:21:59;;;;;;;4.20;3.90;;;16.10;99.90;;;;;;961109;147;27379;-76
2023/09/07 05:24:26;;;;;;;7.08;4.40;;;16.50;99.90;;;;;;960631;147;27417;-76
2023/09/07 05:26:53;;;;;;;5.22;3.77;;;16.90;99.90;;;;;;962918;147;27484;-76
2023/09/07 05:29:21;;;;;;;4.10;3.67;;;17.30;99.90;;;;;;961140;147;27413;-76
2023/09/07 05:31:46;;;;;;;7.47;4.15;;;17.80;99.90;;;;;;959083;147;27389;-76
2023/09/07 05:34:12;;;;;;;3.80;3.40;;;18.30;99.90;;;;;;959079;147;27367;-76
2023/09/07 05:36:39;;;;;;;7.55;5.30;;;18.80;99.90;;;;;;953242;146;27311;-76
2023/09/07 05:39:06;;;;;;;3.45;3.15;;;19.40;99.90;;;;;;953232;146;27355;-76
2023/09/07 05:41:32;;;;;;;4.03;3.62;;;20.00;99.90;;;;;;953697;148;27335;-76
2023/09/07 05:43:59;;;;;;;3.77;3.47;;;20.60;99.90;;;;;;953208;148;27370;-76
2023/09/07 05:46:25;;;;;;;3.95;3.22;;;21.30;99.90;;;;;;949764;147;28573;-77
2023/09/07 05:48:52;;;;;;;3.87;3.58;;;21.90;99.90;;;;;;936880;150;27750;-76
2023/09/07 05:51:18;;;;;;;4.90;3.50;;;22.50;99.90;;;;;;948523;148;27385;-77
2023/09/07 05:53:45;;;;;;;3.37;3.00;;;23.10;99.90;;;;;;946155;148;27443;-77
2023/09/07 05:56:12;;;;;;;3.65;3.05;;;23.80;98.50;;;;;;948937;147;29157;-77
2023/09/07 05:58:38;;;;;;;3.77;3.40;;;24.40;96.20;;;;;;933953;150;27305;-77
2023/09/07 06:01:05;;;;;;;3.35;2.98;;;25.00;93.90;;;;;;936409;148;27334;-77
2023/09/07 06:03:32;;;;;;;3.35;3.05;;;25.70;91.60;;;;;;956246;146;27420;-74
2023/09/07 06:05:58;;;;;;;4.20;3.27;;;26.30;90.10;;;;;;949193;146;27359;-74
2023/09/07 06:08:25;;;;;;;4.15;3.70;;;26.90;86.20;;;;;;957914;147;27327;-74
2023/09/07 06:10:51;;;;;;;4.75;3.17;;;27.50;83.20;;;;;;949067;147;27310;-74
2023/09/07 06:13:18;;;;;;;3.12;2.90;;;28.10;80.20;;;;;;926269;150;27376;-74
2023/09/07 06:15:44;;;;;;;2.90;2.70;;;28.70;78.10;;;;;;926961;150;27448;-74
2023/09/07 06:18:11;;;;;;;3.02;2.70;;;29.30;75.50;;;;;;926515;150;27369;-74
2023/09/07 06:20:38;;;;;;;2.92;2.72;;;29.80;73.00;;;;;;940278;150;27420;-74
2023/09/07 06:23:04;;;;;;;3.67;3.10;;;30.40;70.60;;;;;;933459;149;27423;-74
2023/09/07 06:25:31;;;;;;;3.08;2.85;;;30.90;69.10;;;;;;957065;147;27398;-74
2023/09/07 06:27:57;;;;;;;3.37;3.08;;;31.40;67.70;;;;;;952030;147;27434;-74
2023/09/07 06:30:24;;;;;;;3.85;2.90;;;31.90;66.00;;;;;;950467;146;27289;-74
2023/09/07 06:32:52;;;;;;;4.22;2.87;;;32.40;64.80;;;;;;949538;147;27334;-74
2023/09/07 06:35:18;;;;;;;2.62;2.45;;;33.00;63.20;;;;;;949949;147;27429;-74
2023/09/07 06:37:44;;;;;;;2.83;2.60;;;33.60;61.80;;;;;;948299;146;27344;-74
2023/09/07 06:40:10;;;;;;;3.30;3.00;;;34.10;60.40;;;;;;949856;146;27309;-74
2023/09/07 06:42:37;;;;;;;3.00;2.72;;;34.60;59.50;;;;;;943916;148;26182;-74
2023/09/07 06:45:03;;;;;;;3.47;3.17;;;35.00;58.40;;;;;;941258;148;26219;-75
2023/09/07 06:47:30;;;;;;;3.27;2.98;;;35.50;57.50;;;;;;945665;149;26364;-74
2023/09/07 06:49:57;;;;;;;3.92;3.05;;;36.00;56.60;;;;;;953293;148;26263;-74
2023/09/07 06:52:23;;;;;;;3.12;2.87;;;36.40;55.70;;;;;;955300;148;26264;-75
2023/09/07 06:54:53;;;;;;;3.20;3.00;;;36.80;54.70;;;;;;945840;148;26271;-74
2023/09/07 06:57:19;;;;;;;2.95;2.75;;;37.20;54.10;;;;;;972940;145;26179;-74
2023/09/07 06:59:46;;;;;;;3.67;3.37;;;37.60;53.30;;;;;;963219;146;27519;-74
2023/09/07 07:02:12;;;;;;;3.10;2.80;;;38.00;52.70;;;;;;962966;146;26242;-74
2023/09/07 07:04:39;;;;;;;3.00;2.70;;;38.40;51.80;;;;;;962378;146;26331;-74
2023/09/07 07:07:06;;;;;;;3.60;3.30;;;38.70;50.80;;;;;;963388;146;26267;-74
2023/09/07 07:09:33;;;;;;;3.65;3.30;;;39.10;50.20;;;;;;962373;146;26266;-74
2023/09/07 07:11:59;;;;;;;3.12;2.83;;;39.50;49.70;;;;;;962674;146;26304;-74
2023/09/07 07:14:25;;;;;;;4.05;3.30;;;39.90;48.90;;;;;;953972;147;26229;-75
2023/09/07 07:16:52;;;;;;;2.87;2.67;;;40.30;48.30;;;;;;961239;148;26330;-74
2023/09/07 07:19:19;;;;;;;3.45;3.15;;;40.70;47.40;;;;;;970181;146;27950;-72
2023/09/07 07:21:45;;;;;;;3.17;2.90;;;41.00;46.70;;;;;;962546;146;26743;-72
2023/09/07 07:24:12;;;;;;;3.67;2.50;;;41.30;46.20;;;;;;945981;148;26251;-74
2023/09/07 07:26:38;;;;;;;6.65;2.65;;;41.70;45.70;;;;;;962339;146;26513;-72
2023/09/07 07:29:05;;;;;;;3.55;2.70;;;42.00;45.00;;;;;;962538;146;26681;-75
2023/09/07 07:31:31;;;;;;;2.70;2.50;;;42.30;44.30;;;;;;963818;146;26251;-74
2023/09/07 07:33:58;;;;;;;2.65;2.45;;;42.60;43.50;;;;;;962536;146;26336;-74
2023/09/07 07:36:25;;;;;;;2.67;2.40;;;42.90;42.80;;;;;;962960;146;26245;-73
2023/09/07 07:38:51;;;;;;;2.40;2.20;;;43.10;42.20;;;;;;955470;148;26246;-74
2023/09/07 07:41:18;;;;;;;2.35;2.15;;;43.50;41.90;;;;;;945288;148;26372;-74
2023/09/07 07:43:44;;;;;;;3.67;2.35;;;43.70;41.50;;;;;;970567;145;26239;-73
2023/09/07 07:46:11;;;;;;;2.67;2.47;;;43.90;40.90;;;;;;960128;146;26346;-73
2023/09/07 07:48:38;;;;;;;2.55;2.35;;;44.20;40.60;;;;;;949731;147;26198;-74
2023/09/07 07:51:05;;;;;;;2.50;2.30;;;44.50;40.00;;;;;;950327;147;26258;-73
2023/09/07 07:53:31;;;;;;;3.12;2.83;;;44.70;39.60;;;;;;932234;150;26277;-72
2023/09/07 07:55:57;;;;;;;2.35;2.15;;;44.90;39.20;;;;;;949771;147;26250;-73
2023/09/07 07:58:24;;;;;;;2.42;2.22;;;45.20;38.80;;;;;;935398;150;26325;-74
2023/09/07 08:00:51;;;;;;;2.58;2.33;;;45.40;38.20;;;;;;956982;147;26748;-76
2023/09/07 08:03:17;;;;;;;2.75;2.55;;;45.50;37.70;;;;;;952806;148;26396;-72
2023/09/07 08:05:44;;;;;;;2.67;2.47;;;45.70;37.20;;;;;;950759;148;26389;-73
2023/09/07 08:08:11;;;;;;;3.22;2.17;;;45.90;37.00;;;;;;948129;146;26259;-73
2023/09/07 08:10:37;;;;;;;3.50;2.75;;;46.00;36.70;;;;;;950702;147;26230;-73
2023/09/07 08:13:04;;;;;;;2.42;2.22;;;46.20;36.30;;;;;;942357;148;26245;-72
2023/09/07 08:15:31;;;;;;;3.27;2.60;;;46.30;35.70;;;;;;950842;147;26329;-74
2023/09/07 08:17:57;;;;;;;3.22;2.12;;;46.40;35.40;;;;;;950169;147;26293;-73
2023/09/07 08:20:23;;;;;;;3.20;2.45;;;46.40;35.30;;;;;;950246;147;26224;-74
2023/09/07 08:22:50;;;;;;;4.17;1.95;;;46.50;35.10;;;;;;949075;146;26382;-76
2023/09/07 08:25:18;;;;;;;2.87;1.90;;;46.60;34.60;;;;;;948667;146;26266;-73
2023/09/07 08:27:45;;;;;;;2.50;2.10;;;46.70;34.30;;;;;;956124;148;26464;-75
2023/09/07 08:30:18;;;;;;;2.05;1.95;;;46.80;34.00;;;;;;947812;148;26297;-74
2023/09/07 08:32:44;;;;;;;3.37;2.20;;;46.90;33.80;;;;;;945257;148;26358;-75
2023/09/07 08:35:12;;;;;;;2.27;2.08;;;47.00;34.00;;;;;;952171;148;26271;-75
2023/09/07 08:37:36;;;;;;;2.40;2.20;;;47.00;33.20;;;;;;949030;148;26706;-75
2023/09/07 08:40:04;;;;;;;1.95;1.85;;;47.10;32.90;;;;;;948920;148;26767;-75
2023/09/07 08:42:29;;;;;;;3.52;2.15;;;47.10;32.90;;;;;;948746;148;26301;-75
2023/09/07 08:44:58;;;;;;;2.05;1.95;;;47.20;32.70;;;;;;948845;148;26332;-75
2023/09/07 08:47:23;;;;;;;2.27;1.80;;;47.30;32.60;;;;;;952920;147;26409;-75
2023/09/07 08:49:49;;;;;;;2.00;1.82;;;47.30;32.30;;;;;;954050;148;26352;-75
2023/09/07 08:52:16;;;;;;;2.67;2.10;;;47.40;32.20;;;;;;952146;147;26399;-75
2023/09/07 08:54:42;;;;;;;1.82;1.70;;;47.50;32.00;;;;;;951843;148;26259;-75
2023/09/07 08:57:09;;;;;;;2.02;1.70;;;47.50;31.50;;;;;;954773;147;26203;-75
2023/09/07 08:59:36;;;;;;;4.67;2.15;;;47.60;31.50;;;;;;952432;148;26243;-75
2023/09/07 09:02:04;;;;;;;3.72;1.92;;;47.50;31.40;;;;;;954201;147;26286;-75
2023/09/07 09:04:30;;;;;;;1.98;1.87;;;47.60;31.20;;;;;;953081;148;26248;-75
2023/09/07 09:06:55;;;;;;;4.72;2.10;;;47.60;31.00;;;;;;954917;148;26368;-75
2023/09/07 09:09:23;;;;;;;2.30;2.10;;;47.60;30.90;;;;;;953380;148;26319;-75
2023/09/07 09:11:48;;;;;;;1.70;1.60;;;47.50;30.50;;;;;;952547;148;26259;-75
2023/09/07 09:14:15;;;;;;;2.00;1.90;;;47.60;30.20;;;;;;953187;148;26344;-75
2023/09/07 09:16:43;;;;;;;2.37;1.90;;;47.60;30.00;;;;;;932694;149;26242;-75
2023/09/07 09:19:09;;;;;;;2.55;2.27;;;47.50;29.80;;;;;;938783;150;26294;-76
2023/09/07 09:21:35;;;;;;;2.05;1.60;;;47.40;29.80;;;;;;942241;149;26234;-75
2023/09/07 09:24:01;;;;;;;1.65;1.55;;;47.30;29.80;;;;;;954024;148;26237;-75
2023/09/07 09:26:29;;;;;;;1.57;1.47;;;47.20;29.50;;;;;;952487;148;26255;-75
2023/09/07 09:28:55;;;;;;;1.92;1.72;;;47.00;29.30;;;;;;952278;148;26534;-75
2023/09/07 09:31:21;;;;;;;1.67;1.57;;;46.90;29.30;;;;;;938055;149;26294;-75
2023/09/07 09:33:48;;;;;;;2.30;2.10;;;46.70;29.20;;;;;;957202;146;26335;-75
2023/09/07 09:36:14;;;;;;;1.70;1.60;;;46.40;29.20;;;;;;958608;146;26144;-79
2023/09/07 09:38:41;;;;;;;1.92;1.82;;;46.10;29.30;;;;;;956964;146;26302;-77
2023/09/07 09:41:08;;;;;;;1.98;1.87;;;45.80;29.50;;;;;;948140;146;26328;-76
2023/09/07 09:43:34;;;;;;;1.95;1.60;;;45.50;29.50;;;;;;931954;149;26300;-80
2023/09/07 09:46:01;;;;;;;3.00;1.90;;;45.20;29.70;;;;;;933062;149;26260;-79
2023/09/07 09:48:27;;;;;;;2.42;2.20;;;44.80;29.50;;;;;;933828;149;26387;-79
2023/09/07 09:50:54;;;;;;;2.05;1.77;;;44.40;29.40;;;;;;926598;150;26309;-75
2023/09/07 09:53:22;;;;;;;2.00;1.80;;;44.00;29.70;;;;;;948403;148;26345;-78
2023/09/07 09:55:52;;;;;;;2.60;1.70;;;43.60;29.80;;;;;;947968;148;26776;-76
2023/09/07 09:58:16;;;;;;;2.02;1.92;;;43.10;30.00;;;;;;949112;148;26333;-79
2023/09/07 10:00:47;;;;;;;2.33;2.12;;;42.50;29.90;;;;;;950957;148;26306;-75
2023/09/07 10:03:18;;;;;;;2.75;2.08;;;42.00;30.00;;;;;;948737;147;26653;-76
2023/09/07 10:05:46;;;;;;;2.10;2.00;;;41.50;30.30;;;;;;937543;150;27305;-79
2023/09/07 10:08:14;;;;;;;2.95;2.30;;;40.90;30.60;;;;;;941654;149;26196;-77
2023/09/07 10:10:44;;;;;;;2.20;1.90;;;40.40;30.80;;;;;;940251;149;26172;-77
2023/09/07 10:13:10;;;;;;;2.00;1.90;;;39.80;31.10;;;;;;956121;147;26251;-78
2023/09/07 10:15:38;;;;;;;2.17;2.08;;;39.30;31.40;;;;;;934654;149;26293;-79
2023/09/07 10:18:13;;;;;;;2.27;2.15;;;38.80;31.60;;;;;;956472;147;26354;-77
2023/09/07 10:20:58;;;;;;;2.50;1.90;;;38.30;32.10;;;;;;934543;150;27435;-78
2023/09/07 10:23:24;;;;;;;2.45;2.25;;;37.90;32.30;;;;;;948433;146;27359;-75
2023/09/07 10:25:51;;;;;;;3.27;2.92;;;37.40;32.60;;;;;;939163;146;26235;-79
2023/09/07 10:28:20;;;;;;;2.27;2.08;;;36.90;32.80;;;;;;950017;147;27339;-77
2023/09/07 10:30:46;;;;;;;2.50;2.30;;;36.50;33.20;;;;;;948506;147;27361;-77
2023/09/07 10:33:19;;;;;;;3.65;2.80;;;36.10;33.60;;;;;;924381;150;27821;-79
2023/09/07 10:35:46;;;;;;;2.27;2.15;;;35.70;33.90;;;;;;950637;148;27471;-78
2023/09/07 10:38:15;;;;;;;2.10;2.00;;;35.20;34.30;;;;;;951081;148;27353;-77
2023/09/07 10:40:45;;;;;;;2.98;2.02;;;34.90;34.90;;;;;;950822;148;27433;-79
2023/09/07 10:43:11;;;;;;;13.45;2.27;;;34.50;35.20;;;;;;932917;149;27391;-78
2023/09/07 10:45:38;;;;;;;2.90;2.67;;;34.20;35.50;;;;;;940450;150;27368;-78
2023/09/07 10:48:04;;;;;;;2.67;2.47;;;33.90;35.90;;;;;;940460;149;27395;-79
2023/09/07 10:50:31;;;;;;;2.52;2.30;;;33.60;36.40;;;;;;937954;149;27401;-78
2023/09/07 10:52:57;;;;;;;2.27;2.08;;;33.40;36.60;;;;;;943630;148;27354;-75
2023/09/07 10:55:24;;;;;;;2.60;2.33;;;33.10;36.90;;;;;;949700;147;27435;-79
2023/09/07 10:57:51;;;;;;;2.35;2.05;;;32.90;37.20;;;;;;949124;146;27316;-78
2023/09/07 11:00:17;;;;;;;2.25;2.10;;;32.70;37.50;;;;;;937149;150;28445;-78
2023/09/07 11:02:44;;;;;;;2.37;2.25;;;32.50;37.80;;;;;;938609;149;27424;-76
2023/09/07 11:05:10;;;;;;;2.80;2.60;;;32.30;38.10;;;;;;927593;150;27441;-78
2023/09/07 11:07:38;;;;;;;2.52;2.35;;;32.20;38.40;;;;;;928636;150;27467;-78
2023/09/07 11:10:04;;;;;;;3.27;2.27;;;32.00;38.60;;;;;;950400;148;27370;-79
2023/09/07 11:12:30;;;;;;;2.80;2.60;;;31.90;38.60;;;;;;940651;149;27458;-78
2023/09/07 11:14:57;;;;;;;3.10;2.50;;;31.80;38.90;;;;;;941619;149;27446;-75
2023/09/07 11:17:27;;;;;;;5.08;2.55;;;31.70;39.20;;;;;;950180;147;27345;-78
2023/09/07 11:19:53;;;;;;;2.90;2.65;;;31.60;39.30;;;;;;937027;149;27365;-78
2023/09/07 11:22:19;;;;;;;2.85;2.30;;;31.50;39.30;;;;;;957369;147;27646;-77
2023/09/07 11:24:46;;;;;;;2.90;2.70;;;31.50;39.40;;;;;;947193;148;27416;-78
2023/09/07 11:27:13;;;;;;;2.60;2.40;;;31.40;39.60;;;;;;948070;148;26372;-78
2023/09/07 11:29:39;;;;;;;3.67;2.60;;;31.30;40.00;;;;;;949190;148;27355;-79
2023/09/07 11:32:06;;;;;;;2.40;2.20;;;31.20;40.30;;;;;;941220;150;27330;-78
2023/09/07 11:34:32;;;;;;;2.75;2.55;;;31.20;40.40;;;;;;934487;150;27341;-76
2023/09/07 11:36:59;;;;;;;2.55;2.35;;;31.10;40.60;;;;;;954005;147;28115;-77
2023/09/07 11:39:26;;;;;;;2.80;2.60;;;31.00;40.70;;;;;;953441;147;27353;-78
2023/09/07 11:41:52;;;;;;;2.85;2.35;;;31.00;40.90;;;;;;933942;149;27374;-79
2023/09/07 11:44:19;;;;;;;2.98;2.42;;;31.00;41.10;;;;;;934670;149;27342;-78
2023/09/07 11:46:45;;;;;;;2.70;2.50;;;30.90;41.30;;;;;;956824;147;27320;-76
2023/09/07 11:49:13;;;;;;;2.47;2.27;;;30.80;41.50;;;;;;944094;148;27450;-78
2023/09/07 11:51:38;;;;;;;2.70;2.50;;;30.80;41.60;;;;;;951154;148;27341;-78
2023/09/07 11:54:05;;;;;;;2.87;2.50;;;30.80;41.70;;;;;;963047;146;27320;-78
2023/09/07 11:56:32;;;;;;;2.65;2.40;;;30.80;42.10;;;;;;962957;146;27323;-75
2023/09/07 11:58:58;;;;;;;2.47;2.27;;;30.70;42.00;;;;;;957291;147;27782;-75
2023/09/07 12:01:26;;;;;;;2.70;2.50;;;30.70;42.20;;;;;;963041;146;27339;-75
2023/09/07 12:03:51;;;;;;;2.67;2.47;;;30.80;42.30;;;;;;962707;146;27336;-75
2023/09/07 12:06:18;;;;;;;2.35;2.25;;;30.80;42.20;;;;;;962610;146;27267;-75
2023/09/07 12:08:45;;;;;;;2.80;2.60;;;30.90;42.20;;;;;;955695;147;27356;-75
2023/09/07 12:11:11;;;;;;;3.10;2.27;;;30.90;42.10;;;;;;942527;149;27497;-75
2023/09/07 12:13:38;;;;;;;2.85;2.30;;;30.90;42.20;;;;;;945204;149;27334;-75
2023/09/07 12:16:04;;;;;;;2.45;2.25;;;30.90;42.30;;;;;;956898;146;27336;-75
2023/09/07 12:18:31;;;;;;;3.55;3.25;;;30.90;42.40;;;;;;949041;148;27295;-75
2023/09/07 12:20:58;;;;;;;3.12;2.75;;;31.00;42.60;;;;;;971744;145;27334;-75
2023/09/07 12:23:24;;;;;;;2.60;2.40;;;31.00;43.10;;;;;;950277;149;27459;-75
2023/09/07 12:25:51;;;;;;;2.80;2.60;;;31.00;42.70;;;;;;965373;145;27357;-75
2023/09/07 12:28:17;;;;;;;2.52;2.33;;;31.00;42.90;;;;;;973548;145;27306;-75
2023/09/07 12:30:44;;;;;;;2.60;2.40;;;31.00;42.60;;;;;;961652;145;27330;-75
2023/09/07 12:33:11;;;;;;;4.08;2.55;;;31.00;42.50;;;;;;975659;146;27333;-75
2023/09/07 12:35:37;;;;;;;3.37;2.90;;;31.00;42.60;;;;;;973630;145;27370;-75
2023/09/07 12:38:04;;;;;;;2.70;2.50;;;31.00;42.70;;;;;;973866;145;27307;-75
2023/09/07 12:40:30;;;;;;;3.02;2.72;;;31.00;42.80;;;;;;971110;145;27294;-75
2023/09/07 12:42:57;;;;;;;3.22;2.33;;;31.00;42.80;;;;;;972421;145;27340;-75
2023/09/07 12:45:23;;;;;;;2.50;2.30;;;31.00;42.60;;;;;;965970;145;27388;-75